Time;durP1;ratioP1;P1;durP2;ratioP2;P2;SDS_P1;SDS_P2;PMS_P1;PMS_P2;Temp;Humidity;BMP_temperature;BMP_pressure;BME280_temperature;BME280_humidity;BME280_pressure;Samples;Min_cycle;Max_cycle;Signal;HPM_P1;HPM_P2
2023/09/30 00:01:43;;;;;;;9.63;3.67;;;22.10;73.60;;;;;;5050356;28;20033;-61
2023/09/30 00:04:09;;;;;;;9.95;4.00;;;22.10;73.60;;;;;;5061770;23;20045;-62
2023/09/30 00:06:35;;;;;;;13.25;4.00;;;22.10;73.70;;;;;;5030627;28;20409;-62
2023/09/30 00:09:02;;;;;;;12.88;4.00;;;22.10;74.10;;;;;;5029958;28;20030;-62
2023/09/30 00:11:27;;;;;;;9.05;3.53;;;22.10;73.40;;;;;;5031003;28;20027;-62
2023/09/30 00:13:53;;;;;;;10.00;3.38;;;22.10;73.50;;;;;;5042976;28;20025;-62
2023/09/30 00:16:19;;;;;;;14.93;3.85;;;22.10;73.70;;;;;;5050940;28;20029;-62
2023/09/30 00:18:46;;;;;;;7.70;3.47;;;22.10;73.70;;;;;;5050766;28;20086;-61
2023/09/30 00:21:12;;;;;;;10.43;3.40;;;22.10;73.30;;;;;;5049713;28;20461;-62
2023/09/30 00:23:38;;;;;;;14.27;3.00;;;22.10;73.30;;;;;;5051220;28;20434;-62
2023/09/30 00:26:05;;;;;;;11.85;2.67;;;22.00;71.50;;;;;;5049636;28;20032;-62
2023/09/30 00:28:30;;;;;;;15.77;3.03;;;22.00;70.30;;;;;;5050608;28;20544;-62
2023/09/30 00:30:56;;;;;;;12.40;2.60;;;21.90;69.00;;;;;;5050795;28;20487;-62
2023/09/30 00:33:23;;;;;;;9.82;3.08;;;21.80;69.30;;;;;;5050452;28;20023;-62
2023/09/30 00:35:48;;;;;;;9.93;2.45;;;21.80;69.00;;;;;;5050576;28;20052;-62
2023/09/30 00:38:14;;;;;;;11.50;2.60;;;21.80;67.40;;;;;;5050738;28;20543;-62
2023/09/30 00:40:47;;;;;;;14.18;2.83;;;21.80;67.30;;;;;;5046040;28;20025;-62
2023/09/30 00:43:20;;;;;;;9.05;2.28;;;21.70;66.90;;;;;;5049995;28;20048;-61
2023/09/30 00:45:49;;;;;;;9.00;2.70;;;21.70;67.30;;;;;;5054707;28;20036;-62
2023/09/30 00:48:15;;;;;;;9.68;2.35;;;21.70;66.20;;;;;;5053279;28;20094;-62
2023/09/30 00:50:41;;;;;;;11.27;2.78;;;21.70;66.60;;;;;;5052376;28;20021;-62
2023/09/30 00:53:07;;;;;;;15.50;2.38;;;21.70;66.80;;;;;;5054113;28;20393;-62
2023/09/30 00:55:33;;;;;;;13.35;2.85;;;21.80;66.50;;;;;;5054561;28;20013;-62
2023/09/30 00:58:00;;;;;;;18.23;3.25;;;21.80;66.40;;;;;;5053292;28;20064;-62
2023/09/30 01:00:26;;;;;;;14.93;2.70;;;21.80;67.50;;;;;;5052647;28;20078;-61
2023/09/30 01:02:53;;;;;;;13.27;3.00;;;21.80;68.10;;;;;;5053117;28;20468;-61
2023/09/30 01:05:19;;;;;;;9.63;2.53;;;21.80;68.20;;;;;;5054103;28;20118;-62
2023/09/30 01:07:45;;;;;;;15.00;3.33;;;21.80;67.90;;;;;;5053246;28;20033;-61
2023/09/30 01:10:11;;;;;;;10.70;2.58;;;21.80;68.40;;;;;;5051849;28;20028;-61
2023/09/30 01:12:37;;;;;;;9.25;2.45;;;21.90;68.60;;;;;;5043736;28;20025;-62
2023/09/30 01:15:05;;;;;;;10.15;2.60;;;21.90;68.20;;;;;;5053792;28;20054;-62
2023/09/30 01:17:32;;;;;;;11.43;2.45;;;21.90;68.30;;;;;;5054278;28;20063;-62
2023/09/30 01:20:04;;;;;;;7.65;2.25;;;21.90;68.30;;;;;;5052790;28;20044;-62
2023/09/30 01:22:30;;;;;;;8.70;2.88;;;21.90;68.00;;;;;;5054159;28;20396;-62
2023/09/30 01:24:56;;;;;;;9.82;3.25;;;21.90;68.00;;;;;;5052497;28;20025;-61
2023/09/30 01:27:22;;;;;;;10.98;3.25;;;21.90;68.30;;;;;;5053978;28;20032;-62
2023/09/30 01:29:48;;;;;;;11.23;2.95;;;21.90;68.10;;;;;;5054203;28;20043;-62
2023/09/30 01:32:14;;;;;;;8.82;2.40;;;21.90;68.30;;;;;;5053687;28;20400;-62
2023/09/30 01:34:40;;;;;;;10.65;2.90;;;21.90;69.00;;;;;;5053376;28;20116;-61
2023/09/30 01:37:06;;;;;;;10.98;3.15;;;21.90;68.00;;;;;;5053673;28;20029;-62
2023/09/30 01:39:33;;;;;;;9.10;2.78;;;21.80;68.00;;;;;;5052740;28;20538;-60
2023/09/30 01:41:59;;;;;;;10.02;2.70;;;21.80;68.40;;;;;;5053288;28;20405;-61
2023/09/30 01:44:25;;;;;;;8.32;2.65;;;21.80;68.20;;;;;;5051873;28;20033;-62
2023/09/30 01:46:51;;;;;;;11.27;2.85;;;21.90;67.90;;;;;;5047777;28;20065;-62
2023/09/30 01:49:18;;;;;;;9.15;2.70;;;21.80;68.10;;;;;;5053380;28;20508;-62
2023/09/30 01:51:44;;;;;;;9.50;2.80;;;21.80;68.60;;;;;;5053493;28;20611;-62
2023/09/30 01:54:10;;;;;;;7.18;2.28;;;21.80;68.50;;;;;;5051700;28;20069;-62
2023/09/30 01:56:36;;;;;;;9.32;2.78;;;21.80;68.10;;;;;;5053296;28;20028;-62
2023/09/30 01:59:02;;;;;;;8.93;2.70;;;21.90;68.50;;;;;;5050745;28;20423;-62
2023/09/30 02:01:28;;;;;;;9.80;3.13;;;21.80;68.70;;;;;;5051898;28;20025;-61
2023/09/30 02:03:54;;;;;;;10.75;2.92;;;21.80;68.70;;;;;;5051658;28;20124;-61
2023/09/30 02:06:20;;;;;;;9.75;2.67;;;21.80;68.40;;;;;;5051809;28;20021;-62
2023/09/30 02:08:46;;;;;;;10.57;2.70;;;21.80;68.50;;;;;;5051017;28;20033;-62
2023/09/30 02:11:13;;;;;;;10.27;3.47;;;21.80;68.40;;;;;;5052930;28;20104;-62
2023/09/30 02:13:39;;;;;;;8.35;2.42;;;21.80;68.60;;;;;;5052661;28;20021;-61
2023/09/30 02:16:05;;;;;;;9.07;2.78;;;21.80;68.50;;;;;;5051849;28;20480;-62
2023/09/30 02:18:34;;;;;;;9.02;2.70;;;21.80;68.40;;;;;;5052921;28;20036;-61
2023/09/30 02:21:00;;;;;;;11.00;2.97;;;21.80;68.20;;;;;;5051763;28;20037;-62
2023/09/30 02:23:26;;;;;;;10.32;3.17;;;21.80;68.30;;;;;;5052572;28;20036;-62
2023/09/30 02:25:52;;;;;;;11.15;3.35;;;21.80;68.40;;;;;;5052913;28;20036;-61
2023/09/30 02:28:17;;;;;;;7.82;2.80;;;21.80;68.10;;;;;;5051681;28;20467;-61
2023/09/30 02:30:44;;;;;;;9.57;3.10;;;21.90;68.30;;;;;;5052734;28;20021;-62
2023/09/30 02:33:10;;;;;;;9.60;2.60;;;21.80;68.50;;;;;;5044433;28;20029;-62
2023/09/30 02:35:38;;;;;;;9.98;3.05;;;21.80;68.20;;;;;;5051857;28;20023;-62
2023/09/30 02:38:05;;;;;;;10.13;2.95;;;21.90;68.20;;;;;;5045411;28;20408;-62
2023/09/30 02:40:30;;;;;;;9.82;3.03;;;21.90;68.40;;;;;;5052439;28;20029;-62
2023/09/30 02:42:56;;;;;;;9.48;2.80;;;21.90;68.30;;;;;;5052115;28;20086;-61
2023/09/30 02:45:24;;;;;;;10.13;2.80;;;21.90;68.30;;;;;;5052425;28;20028;-62
2023/09/30 02:47:49;;;;;;;10.10;2.90;;;21.80;67.80;;;;;;5052279;28;20120;-61
2023/09/30 02:50:15;;;;;;;10.50;3.05;;;21.90;68.10;;;;;;5051385;28;20025;-62
2023/09/30 02:52:41;;;;;;;9.50;3.38;;;21.80;68.00;;;;;;5052243;28;20527;-62
2023/09/30 02:55:11;;;;;;;8.55;2.92;;;21.80;68.20;;;;;;5048279;28;20385;-62
2023/09/30 02:57:37;;;;;;;9.25;2.75;;;21.80;68.20;;;;;;5052178;28;20036;-61
2023/09/30 03:00:23;;;;;;;11.43;3.17;;;21.80;67.90;;;;;;5052096;28;20508;-62
2023/09/30 03:02:53;;;;;;;11.30;3.30;;;21.80;67.60;;;;;;5052223;28;20036;-62
2023/09/30 03:05:20;;;;;;;14.65;3.58;;;21.80;68.30;;;;;;5050881;28;20116;-62
2023/09/30 03:07:47;;;;;;;13.35;3.53;;;21.90;67.40;;;;;;5050436;28;20094;-62
2023/09/30 03:10:26;;;;;;;9.75;3.15;;;21.90;67.50;;;;;;5050896;28;20021;-62
2023/09/30 03:12:56;;;;;;;11.65;3.08;;;21.90;67.80;;;;;;5051986;28;20051;-60
2023/09/30 03:15:23;;;;;;;15.60;3.28;;;21.80;67.70;;;;;;5052297;28;20021;-61
2023/09/30 03:17:49;;;;;;;11.40;3.25;;;21.80;67.60;;;;;;5051093;28;20589;-61
2023/09/30 03:20:19;;;;;;;11.95;3.03;;;21.80;67.50;;;;;;5051766;28;20120;-62
2023/09/30 03:22:46;;;;;;;;;;;21.80;67.60;;;;;;5052110;28;20039;-61
2023/09/30 03:25:17;;;;;;;11.18;3.30;;;21.80;67.60;;;;;;5051296;28;19909;-61
2023/09/30 03:27:43;;;;;;;11.10;3.58;;;21.90;67.60;;;;;;5051720;28;20036;-61
2023/09/30 03:30:11;;;;;;;8.80;3.25;;;21.90;67.70;;;;;;5051553;28;20060;-62
2023/09/30 03:32:37;;;;;;;8.70;2.85;;;21.90;67.70;;;;;;5051575;28;20668;-61
2023/09/30 03:35:10;;;;;;;8.15;3.00;;;21.90;67.30;;;;;;5051288;28;20036;-60
2023/09/30 03:37:41;;;;;;;14.40;3.13;;;21.90;67.40;;;;;;5051460;28;20033;-61
2023/09/30 03:40:19;;;;;;;10.32;3.38;;;21.80;67.40;;;;;;5050617;28;20037;-62
2023/09/30 03:42:49;;;;;;;10.05;3.05;;;21.80;67.40;;;;;;5051237;28;20032;-62
2023/09/30 03:45:15;;;;;;;12.63;3.45;;;21.80;67.40;;;;;;5050131;28;20032;-61
2023/09/30 03:47:41;;;;;;;13.38;4.03;;;21.80;67.50;;;;;;5051118;28;20029;-62
2023/09/30 03:50:14;;;;;;;13.68;3.17;;;21.80;67.20;;;;;;5051282;28;20033;-62
2023/09/30 03:52:44;;;;;;;8.85;3.28;;;21.80;67.60;;;;;;5051352;28;20402;-62
2023/09/30 03:55:15;;;;;;;10.75;3.35;;;21.80;67.50;;;;;;5050984;28;20036;-62
2023/09/30 03:57:40;;;;;;;11.65;3.00;;;21.80;68.10;;;;;;5051203;28;20035;-62
2023/09/30 04:00:07;;;;;;;11.68;3.58;;;21.80;67.40;;;;;;5051092;28;20108;-62
2023/09/30 04:02:38;;;;;;;13.73;3.60;;;21.80;67.40;;;;;;5051091;28;20029;-61
2023/09/30 04:05:05;;;;;;;9.85;2.78;;;21.80;67.50;;;;;;5050794;28;20043;-62
2023/09/30 04:07:32;;;;;;;11.90;3.35;;;21.80;67.70;;;;;;5050174;28;20083;-62
2023/09/30 04:10:01;;;;;;;9.77;3.17;;;21.80;67.20;;;;;;5051098;28;20444;-62
2023/09/30 04:12:26;;;;;;;15.93;3.22;;;21.80;67.60;;;;;;5050178;28;20036;-62
2023/09/30 04:14:52;;;;;;;9.15;3.20;;;21.80;67.50;;;;;;5050363;28;20440;-62
2023/09/30 04:17:18;;;;;;;10.85;3.30;;;21.80;67.70;;;;;;5050775;28;20036;-61
2023/09/30 04:19:45;;;;;;;9.85;3.25;;;21.80;67.80;;;;;;5054464;28;20029;-61
2023/09/30 04:22:12;;;;;;;8.85;3.00;;;21.80;67.40;;;;;;5055124;28;20025;-62
2023/09/30 04:24:39;;;;;;;9.95;2.80;;;21.80;67.50;;;;;;5054736;28;20420;-62
2023/09/30 04:27:07;;;;;;;11.77;3.20;;;21.80;67.60;;;;;;5054896;28;20108;-62
2023/09/30 04:29:34;;;;;;;9.00;3.13;;;21.70;67.20;;;;;;5054151;28;20021;-61
2023/09/30 04:32:00;;;;;;;11.95;2.80;;;21.80;67.30;;;;;;5046677;28;20489;-62
2023/09/30 04:34:28;;;;;;;10.38;2.90;;;21.70;67.50;;;;;;5053779;28;20032;-62
2023/09/30 04:36:54;;;;;;;11.20;3.15;;;21.70;67.40;;;;;;5054692;28;20060;-62
2023/09/30 04:39:20;;;;;;;13.63;3.38;;;21.80;67.10;;;;;;5054136;28;20482;-62
2023/09/30 04:41:46;;;;;;;10.95;3.08;;;21.80;66.90;;;;;;5049485;28;20116;-61
2023/09/30 04:44:12;;;;;;;11.50;3.22;;;21.70;67.40;;;;;;5054414;28;20501;-60
2023/09/30 04:46:45;;;;;;;14.15;3.40;;;21.70;67.30;;;;;;5054642;28;20032;-62
2023/09/30 04:49:14;;;;;;;10.82;3.45;;;21.70;67.40;;;;;;5053077;28;20173;-61
2023/09/30 04:51:40;;;;;;;10.95;3.00;;;21.70;66.70;;;;;;5054480;28;20104;-62
2023/09/30 04:54:08;;;;;;;11.70;3.38;;;21.80;67.20;;;;;;5054218;28;20096;-62
2023/09/30 04:56:35;;;;;;;13.85;3.28;;;21.70;67.10;;;;;;5054558;28;20021;-62
2023/09/30 04:59:02;;;;;;;12.30;2.95;;;21.70;67.30;;;;;;5054874;28;20072;-62
2023/09/30 05:01:28;;;;;;;9.63;2.92;;;21.70;67.30;;;;;;5054677;28;20411;-61
2023/09/30 05:03:54;;;;;;;11.88;3.38;;;21.70;66.90;;;;;;5053959;28;20029;-61
2023/09/30 05:06:21;;;;;;;13.20;4.00;;;21.70;67.10;;;;;;5054522;28;20025;-62
2023/09/30 05:08:47;;;;;;;13.10;3.67;;;21.70;67.20;;;;;;5052856;28;20112;-62
2023/09/30 05:11:14;;;;;;;7.88;3.03;;;21.70;66.90;;;;;;5054153;28;20025;-61
2023/09/30 05:13:39;;;;;;;12.32;3.60;;;21.70;66.60;;;;;;5053835;28;20025;-62
2023/09/30 05:16:07;;;;;;;12.00;3.25;;;21.70;66.80;;;;;;5054166;28;20396;-61
2023/09/30 05:18:33;;;;;;;9.48;3.03;;;21.70;66.90;;;;;;5052363;28;20032;-62
2023/09/30 05:21:00;;;;;;;14.18;4.07;;;21.70;66.90;;;;;;5052934;28;20063;-62
2023/09/30 05:23:25;;;;;;;12.05;3.70;;;21.70;66.80;;;;;;5053570;28;20111;-61
2023/09/30 05:25:52;;;;;;;11.32;3.17;;;21.70;66.70;;;;;;5053872;28;20611;-61
2023/09/30 05:28:20;;;;;;;10.65;3.55;;;21.70;66.90;;;;;;5053999;28;20029;-62
2023/09/30 05:30:46;;;;;;;9.77;3.30;;;21.70;66.50;;;;;;5053337;28;20111;-62
2023/09/30 05:33:14;;;;;;;10.68;3.38;;;21.70;66.70;;;;;;5053348;28;20155;-62
2023/09/30 05:35:43;;;;;;;15.98;3.67;;;21.70;66.80;;;;;;5051704;28;20024;-62
2023/09/30 05:38:09;;;;;;;12.63;3.75;;;21.70;66.50;;;;;;5052101;28;20032;-62
2023/09/30 05:40:36;;;;;;;15.13;3.42;;;21.70;66.30;;;;;;5053626;28;20116;-62
2023/09/30 05:43:02;;;;;;;11.45;3.40;;;21.70;66.50;;;;;;5053277;28;20396;-61
2023/09/30 05:45:34;;;;;;;9.82;3.30;;;21.70;66.40;;;;;;5053175;28;20029;-62
2023/09/30 05:48:06;;;;;;;12.70;3.53;;;21.70;66.00;;;;;;5053704;28;20025;-61
2023/09/30 05:50:36;;;;;;;11.88;3.70;;;21.70;66.50;;;;;;5053591;28;20100;-62
2023/09/30 05:53:03;;;;;;;12.55;4.07;;;21.70;67.00;;;;;;5053145;28;20075;-62
2023/09/30 05:55:29;;;;;;;11.43;3.50;;;21.70;66.30;;;;;;5053408;28;20025;-62
2023/09/30 05:57:55;;;;;;;13.50;3.80;;;21.70;66.00;;;;;;5053241;28;20033;-62
2023/09/30 06:00:30;;;;;;;10.70;3.25;;;21.70;66.10;;;;;;5053211;28;20033;-62
2023/09/30 06:02:57;;;;;;;11.88;3.38;;;21.70;66.00;;;;;;5051915;28;20497;-61
2023/09/30 06:05:23;;;;;;;14.10;4.10;;;21.70;66.20;;;;;;5090079;23;20444;-62
2023/09/30 06:07:50;;;;;;;13.93;3.55;;;21.70;65.90;;;;;;5072515;28;20035;-62
2023/09/30 06:10:18;;;;;;;12.68;4.25;;;21.70;65.90;;;;;;5072115;28;20097;-61
2023/09/30 06:12:49;;;;;;;13.60;3.90;;;21.70;66.90;;;;;;5072762;28;20024;-62
2023/09/30 06:15:15;;;;;;;14.98;3.78;;;21.70;66.00;;;;;;5089241;28;20483;-62
2023/09/30 06:17:42;;;;;;;11.95;3.70;;;21.70;66.00;;;;;;5092909;28;20028;-62
2023/09/30 06:20:09;;;;;;;10.80;3.47;;;21.70;66.10;;;;;;5092916;28;20024;-62
2023/09/30 06:22:35;;;;;;;10.68;3.25;;;21.70;66.00;;;;;;5092799;28;20024;-62
2023/09/30 06:25:03;;;;;;;11.73;3.67;;;21.70;66.20;;;;;;5092413;28;20036;-62
2023/09/30 06:27:29;;;;;;;11.02;3.47;;;21.70;66.20;;;;;;5092650;28;20388;-62
2023/09/30 06:29:55;;;;;;;13.20;3.78;;;21.70;66.40;;;;;;5074777;28;20044;-61
2023/09/30 06:32:21;;;;;;;11.63;3.83;;;21.70;65.60;;;;;;5091781;28;20074;-62
2023/09/30 06:34:47;;;;;;;14.23;4.32;;;21.70;65.80;;;;;;5092098;28;20059;-62
2023/09/30 06:37:13;;;;;;;10.40;3.40;;;21.70;66.20;;;;;;5092625;28;20480;-62
2023/09/30 06:39:39;;;;;;;10.02;3.30;;;21.70;66.30;;;;;;5074588;28;20036;-62
2023/09/30 06:42:07;;;;;;;12.13;3.85;;;21.70;66.00;;;;;;5091745;28;20103;-61
2023/09/30 06:44:33;;;;;;;12.93;3.90;;;21.70;66.00;;;;;;5092143;28;20398;-62
2023/09/30 06:46:58;;;;;;;14.93;4.28;;;21.70;66.50;;;;;;5092297;28;20031;-61
2023/09/30 06:49:24;;;;;;;17.58;4.38;;;21.60;65.60;;;;;;5092215;28;20028;-61
2023/09/30 06:51:50;;;;;;;10.63;3.65;;;21.60;66.20;;;;;;5091893;28;20020;-62
2023/09/30 06:54:17;;;;;;;12.57;3.33;;;21.70;65.70;;;;;;5091956;28;20024;-62
2023/09/30 06:56:42;;;;;;;11.82;3.70;;;21.70;65.80;;;;;;5092232;28;20028;-62
2023/09/30 06:59:08;;;;;;;12.38;3.63;;;21.70;65.70;;;;;;5091297;28;20024;-59
2023/09/30 07:01:34;;;;;;;11.40;3.53;;;21.70;66.20;;;;;;5091941;28;20024;-61
2023/09/30 07:04:01;;;;;;;12.10;3.70;;;21.60;65.80;;;;;;5091645;28;20027;-62
2023/09/30 07:06:27;;;;;;;9.48;3.42;;;21.60;66.30;;;;;;5092076;28;20093;-61
2023/09/30 07:08:53;;;;;;;12.57;3.72;;;21.60;66.20;;;;;;5091918;28;20040;-62
2023/09/30 07:11:29;;;;;;;11.85;3.35;;;21.60;65.70;;;;;;5082545;28;20020;-61
2023/09/30 07:13:56;;;;;;;14.93;3.63;;;21.70;66.50;;;;;;5085706;28;20024;-61
2023/09/30 07:16:22;;;;;;;15.02;3.97;;;21.70;65.90;;;;;;5091449;28;20028;-62
2023/09/30 07:18:48;;;;;;;16.25;4.40;;;21.70;66.40;;;;;;5091243;28;20031;-62
2023/09/30 07:21:13;;;;;;;14.30;4.05;;;21.70;66.70;;;;;;5091281;28;20020;-62
2023/09/30 07:23:41;;;;;;;15.70;4.18;;;21.70;65.90;;;;;;5091000;28;20495;-61
2023/09/30 07:26:06;;;;;;;15.55;4.18;;;21.70;66.30;;;;;;5091267;28;20039;-60
2023/09/30 07:28:33;;;;;;;16.27;3.60;;;21.70;66.30;;;;;;5091163;28;20023;-62
2023/09/30 07:30:59;;;;;;;11.00;3.65;;;21.70;66.40;;;;;;5092876;28;20028;-61
2023/09/30 07:33:25;;;;;;;17.00;4.15;;;21.70;66.30;;;;;;5090901;28;20490;-61
2023/09/30 07:35:51;;;;;;;12.85;4.25;;;21.70;66.40;;;;;;5091257;28;20069;-66
2023/09/30 07:38:16;;;;;;;19.58;3.70;;;21.70;66.40;;;;;;5091332;28;20479;-62
2023/09/30 07:40:43;;;;;;;15.98;3.83;;;21.70;66.20;;;;;;5091058;28;20052;-62
2023/09/30 07:43:12;;;;;;;15.70;4.55;;;21.70;66.10;;;;;;5090906;28;20028;-62
2023/09/30 07:45:39;;;;;;;17.88;4.07;;;21.70;66.10;;;;;;5090966;28;20043;-62
2023/09/30 07:48:06;;;;;;;16.58;4.03;;;21.70;66.90;;;;;;5091581;28;20105;-62
2023/09/30 07:50:33;;;;;;;15.48;4.15;;;21.70;66.60;;;;;;5091091;28;20028;-62
2023/09/30 07:53:00;;;;;;;12.90;4.00;;;21.70;66.70;;;;;;5090478;28;20012;-62
2023/09/30 07:55:26;;;;;;;16.60;3.80;;;21.70;66.80;;;;;;5072971;28;20028;-62
2023/09/30 07:57:52;;;;;;;18.30;4.47;;;21.70;66.80;;;;;;5090938;28;20030;-62
2023/09/30 08:00:21;;;;;;;13.30;3.88;;;21.70;66.50;;;;;;5090978;28;20479;-63
2023/09/30 08:02:47;;;;;;;14.57;3.67;;;21.80;67.20;;;;;;5072910;28;20024;-62
2023/09/30 08:05:13;;;;;;;18.70;4.05;;;21.70;67.70;;;;;;5091094;28;20035;-62
2023/09/30 08:07:39;;;;;;;23.40;5.05;;;21.70;67.60;;;;;;5090285;28;20024;-61
2023/09/30 08:10:06;;;;;;;23.42;4.88;;;21.80;67.80;;;;;;5090830;28;20028;-61
2023/09/30 08:12:33;;;;;;;18.88;4.63;;;21.80;67.80;;;;;;5090722;28;20016;-61
2023/09/30 08:14:59;;;;;;;19.85;4.85;;;21.80;67.40;;;;;;5090363;28;20030;-61
2023/09/30 08:17:25;;;;;;;22.13;4.93;;;21.80;67.80;;;;;;5090873;28;20028;-61
2023/09/30 08:19:51;;;;;;;22.70;4.88;;;21.90;68.20;;;;;;5090572;28;20039;-61
2023/09/30 08:22:17;;;;;;;15.55;4.82;;;21.90;66.60;;;;;;5091097;28;20101;-62
2023/09/30 08:24:44;;;;;;;18.02;5.35;;;21.80;68.40;;;;;;5090274;28;20032;-60
2023/09/30 08:27:10;;;;;;;26.92;5.05;;;22.00;68.30;;;;;;5090575;28;20441;-61
2023/09/30 08:29:36;;;;;;;21.60;4.57;;;21.90;66.90;;;;;;5090674;28;20028;-60
2023/09/30 08:32:02;;;;;;;17.38;4.30;;;22.00;67.30;;;;;;5090479;28;20402;-60
2023/09/30 08:34:29;;;;;;;27.27;4.75;;;22.00;67.50;;;;;;5090149;28;20028;-62
2023/09/30 08:36:55;;;;;;;20.95;4.05;;;22.00;68.00;;;;;;5090654;28;20081;-61
2023/09/30 08:39:20;;;;;;;22.50;4.80;;;22.00;67.60;;;;;;5092585;28;20057;-60
2023/09/30 08:41:46;;;;;;;52.58;4.57;;;22.10;67.90;;;;;;5088444;28;20103;-60
2023/09/30 08:44:12;;;;;;;28.65;4.95;;;22.10;68.20;;;;;;5089979;28;20024;-61
2023/09/30 08:46:40;;;;;;;25.25;5.10;;;22.10;68.50;;;;;;5090146;28;20024;-61
2023/09/30 08:49:06;;;;;;;31.05;4.72;;;22.10;68.10;;;;;;5089678;28;20488;-60
2023/09/30 08:51:32;;;;;;;18.45;4.20;;;22.10;68.50;;;;;;5086524;28;20024;-61
2023/09/30 08:53:59;;;;;;;24.98;4.60;;;22.10;70.10;;;;;;5085456;28;20081;-59
2023/09/30 08:56:32;;;;;;;24.67;4.65;;;22.10;69.90;;;;;;5092053;28;20112;-61
2023/09/30 08:58:59;;;;;;;19.27;4.53;;;22.20;70.60;;;;;;5073944;28;20047;-60
2023/09/30 09:01:27;;;;;;;33.58;5.25;;;22.10;69.20;;;;;;5078824;28;20029;-61
2023/09/30 09:03:54;;;;;;;30.83;4.53;;;22.20;70.40;;;;;;5085161;28;20043;-61
2023/09/30 09:06:24;;;;;;;24.92;3.92;;;22.20;70.40;;;;;;5092251;28;20123;-61
2023/09/30 09:08:51;;;;;;;20.77;4.07;;;22.20;70.90;;;;;;5093960;28;20032;-59
2023/09/30 09:11:17;;;;;;;14.10;3.97;;;22.20;70.00;;;;;;5092372;28;20075;-61
2023/09/30 09:13:55;;;;;;;15.88;4.45;;;22.30;70.50;;;;;;5093697;28;20051;-61
2023/09/30 09:16:22;;;;;;;15.68;4.07;;;22.20;69.60;;;;;;5093810;28;20379;-60
2023/09/30 09:18:49;;;;;;;15.35;3.50;;;22.30;69.60;;;;;;5093101;28;20048;-61
2023/09/30 09:21:22;;;;;;;17.40;3.95;;;22.30;70.10;;;;;;5087408;28;20104;-61
2023/09/30 09:23:50;;;;;;;14.88;3.67;;;22.20;70.20;;;;;;5080786;28;20048;-61
2023/09/30 09:26:31;;;;;;;17.98;4.15;;;22.20;69.80;;;;;;5093812;28;20032;-61
2023/09/30 09:28:59;;;;;;;17.38;3.75;;;22.20;70.00;;;;;;5090903;28;20024;-61
2023/09/30 09:31:31;;;;;;;19.70;3.70;;;22.20;69.10;;;;;;5093774;28;20024;-61
2023/09/30 09:33:57;;;;;;;15.73;4.10;;;22.10;69.20;;;;;;5093405;28;20480;-58
2023/09/30 09:36:38;;;;;;;17.27;3.83;;;22.00;67.40;;;;;;5094025;28;20028;-57
2023/09/30 09:39:04;;;;;;;20.52;4.18;;;21.90;67.00;;;;;;5081334;28;20031;-56
2023/09/30 09:41:30;;;;;;;14.60;3.40;;;21.90;68.10;;;;;;5089358;28;20024;-57
2023/09/30 09:43:59;;;;;;;22.58;4.63;;;21.90;64.40;;;;;;5093480;28;20035;-52
2023/09/30 09:46:27;;;;;;;18.67;4.43;;;22.00;65.50;;;;;;5042427;28;20032;-58
2023/09/30 09:48:54;;;;;;;17.33;3.35;;;22.00;65.30;;;;;;5093582;28;20311;-59
2023/09/30 09:51:21;;;;;;;17.15;4.38;;;22.00;65.10;;;;;;5093511;28;20043;-58
2023/09/30 09:53:50;;;;;;;49.63;6.35;;;21.90;64.60;;;;;;5091985;28;20537;-57
2023/09/30 09:56:16;;;;;;;14.98;3.60;;;21.90;63.90;;;;;;5075470;28;20103;-61
2023/09/30 09:58:43;;;;;;;16.33;3.75;;;21.90;63.40;;;;;;5075433;28;20040;-61
2023/09/30 10:01:10;;;;;;;19.88;3.85;;;21.90;63.90;;;;;;5093656;28;20039;-61
2023/09/30 10:03:38;;;;;;;13.88;3.78;;;21.90;64.50;;;;;;5091011;28;20364;-61
2023/09/30 10:06:05;;;;;;;19.27;3.92;;;21.90;64.10;;;;;;5084344;28;20032;-61
2023/09/30 10:08:41;;;;;;;16.42;4.50;;;21.90;64.20;;;;;;5093065;28;20028;-60
2023/09/30 10:11:09;;;;;;;14.43;3.50;;;21.80;63.60;;;;;;5092829;28;20495;-61
2023/09/30 10:13:57;;;;;;;13.32;3.50;;;21.90;63.30;;;;;;5092525;28;20020;-60
2023/09/30 10:16:38;;;;;;;16.70;4.63;;;21.80;63.80;;;;;;5091401;28;20074;-61
2023/09/30 10:19:22;;;;;;;25.20;4.88;;;21.90;64.60;;;;;;5092660;28;20028;-61
2023/09/30 10:22:21;;;;;;;16.08;3.92;;;21.90;63.30;;;;;;5089570;28;20024;-61
2023/09/30 10:24:49;;;;;;;20.80;4.78;;;21.90;63.90;;;;;;5092279;28;20148;-61
2023/09/30 10:27:28;;;;;;;21.52;4.78;;;22.00;64.10;;;;;;5092485;28;20032;-61
2023/09/30 10:30:01;;;;;;;22.77;5.35;;;22.00;64.30;;;;;;5092345;28;20035;-61
2023/09/30 10:33:07;;;;;;;18.48;4.88;;;22.00;64.30;;;;;;5091973;28;20085;-61
2023/09/30 10:35:33;;;;;;;21.90;5.47;;;22.00;64.30;;;;;;5091453;28;20036;-61
2023/09/30 10:38:27;;;;;;;23.98;5.40;;;22.00;64.60;;;;;;5092503;28;20402;-61
2023/09/30 10:40:54;;;;;;;23.80;5.68;;;22.00;64.60;;;;;;5051529;28;20028;-63
2023/09/30 10:43:32;;;;;;;21.02;4.85;;;22.10;65.00;;;;;;5058472;28;20505;-60
2023/09/30 10:46:00;;;;;;;22.02;4.32;;;22.00;64.80;;;;;;5091700;28;20044;-62
2023/09/30 10:48:28;;;;;;;25.10;4.25;;;22.00;65.00;;;;;;5040175;28;20426;-63
2023/09/30 10:50:56;;;;;;;16.77;4.30;;;22.00;65.00;;;;;;5074796;28;20039;-62
2023/09/30 10:53:22;;;;;;;20.63;5.45;;;22.00;65.20;;;;;;5092368;28;20389;-62
2023/09/30 10:55:59;;;;;;;25.17;5.20;;;22.00;65.00;;;;;;5074399;28;20028;-62
2023/09/30 10:58:45;;;;;;;18.98;5.03;;;22.00;64.80;;;;;;5091637;28;20024;-63
2023/09/30 11:01:13;;;;;;;22.73;4.97;;;22.00;65.20;;;;;;5092164;28;20042;-62
2023/09/30 11:03:43;;;;;;;21.70;5.00;;;22.00;65.20;;;;;;5091705;28;20044;-63
2023/09/30 11:06:20;;;;;;;;;;;22.10;65.30;;;;;;5091983;28;20415;-62
2023/09/30 11:08:52;;;;;;;20.48;4.72;;;22.10;65.30;;;;;;5092047;28;19919;-61
2023/09/30 11:11:18;;;;;;;17.58;4.80;;;22.10;65.30;;;;;;5092296;28;20120;-62
2023/09/30 11:13:44;;;;;;;22.35;5.15;;;22.10;65.40;;;;;;5091777;28;20028;-64
2023/09/30 11:16:10;;;;;;;23.35;5.00;;;22.10;65.60;;;;;;5091537;28;20028;-62
2023/09/30 11:18:39;;;;;;;18.00;4.65;;;22.10;65.50;;;;;;5091039;28;20172;-63
2023/09/30 11:21:09;;;;;;;20.48;4.75;;;22.10;65.50;;;;;;5091481;28;20035;-62
2023/09/30 11:23:36;;;;;;;24.15;5.47;;;22.00;65.60;;;;;;5091581;28;20059;-63
2023/09/30 11:26:02;;;;;;;18.20;5.22;;;22.00;65.50;;;;;;5091740;28;20115;-62
2023/09/30 11:28:37;;;;;;;14.40;4.18;;;22.00;65.60;;;;;;5091426;28;20032;-62
2023/09/30 11:31:03;;;;;;;21.08;4.78;;;22.00;65.70;;;;;;5091949;28;20453;-63
2023/09/30 11:33:30;;;;;;;16.95;4.68;;;22.00;65.80;;;;;;5073058;28;20515;-62
2023/09/30 11:36:05;;;;;;;17.80;4.88;;;22.00;65.80;;;;;;5091673;28;20050;-62
2023/09/30 11:38:32;;;;;;;17.08;5.15;;;22.00;65.90;;;;;;5091673;28;20494;-62
2023/09/30 11:41:03;;;;;;;19.17;5.00;;;22.00;66.00;;;;;;5091463;28;20061;-62
2023/09/30 11:43:31;;;;;;;18.00;4.85;;;22.00;65.80;;;;;;5090837;28;20032;-61
2023/09/30 11:46:11;;;;;;;21.20;5.13;;;22.00;65.80;;;;;;5091308;28;20019;-63
2023/09/30 11:48:59;;;;;;;19.48;4.88;;;22.00;65.70;;;;;;5088637;28;20392;-62
2023/09/30 11:51:26;;;;;;;27.23;5.17;;;22.00;65.80;;;;;;5085002;28;20169;-62
2023/09/30 11:53:53;;;;;;;19.40;5.10;;;22.00;65.40;;;;;;5087191;28;20024;-62
2023/09/30 11:56:19;;;;;;;16.73;4.70;;;22.00;65.50;;;;;;5087791;28;20027;-64
2023/09/30 11:58:50;;;;;;;19.08;4.82;;;22.00;65.60;;;;;;5087040;28;20027;-63
2023/09/30 12:01:16;;;;;;;26.30;5.03;;;22.00;65.60;;;;;;5089083;28;20028;-62
2023/09/30 12:03:42;;;;;;;21.80;4.22;;;22.00;65.10;;;;;;5110073;22;20502;-62
2023/09/30 12:06:13;;;;;;;19.25;4.18;;;22.00;64.90;;;;;;5023762;28;20497;-64
2023/09/30 12:08:40;;;;;;;23.10;4.22;;;22.00;63.80;;;;;;5028859;28;20697;-63
2023/09/30 12:11:06;;;;;;;24.48;4.43;;;22.00;64.10;;;;;;5013144;28;20036;-64
2023/09/30 12:13:31;;;;;;;46.97;6.05;;;22.00;64.50;;;;;;5030342;28;20396;-64
2023/09/30 12:15:57;;;;;;;36.28;4.90;;;21.90;66.30;;;;;;5032496;28;20105;-64
2023/09/30 12:18:24;;;;;;;23.17;4.43;;;21.90;65.60;;;;;;5033848;28;20080;-63
2023/09/30 12:20:52;;;;;;;30.23;4.63;;;21.90;63.20;;;;;;5030166;28;20083;-64
2023/09/30 12:23:18;;;;;;;34.33;4.80;;;21.90;65.50;;;;;;5030511;28;20022;-64
2023/09/30 12:25:44;;;;;;;26.15;4.63;;;21.80;66.20;;;;;;5030394;28;20572;-65
2023/09/30 12:28:10;;;;;;;20.65;3.20;;;21.90;65.40;;;;;;5025038;28;20053;-64
2023/09/30 12:30:36;;;;;;;24.40;4.00;;;21.80;65.30;;;;;;5032170;28;20052;-61
2023/09/30 12:33:02;;;;;;;13.88;3.17;;;21.80;63.90;;;;;;5030274;28;20071;-60
2023/09/30 12:35:28;;;;;;;27.15;3.83;;;21.90;63.30;;;;;;5030731;28;20021;-62
2023/09/30 12:37:54;;;;;;;27.55;3.70;;;21.90;65.20;;;;;;5029628;28;20048;-61
2023/09/30 12:40:19;;;;;;;18.38;3.22;;;22.00;63.00;;;;;;5017043;28;20039;-60
2023/09/30 12:42:45;;;;;;;16.20;2.85;;;22.00;62.00;;;;;;5035683;28;20034;-61